sensor_id;sensor_type;location;lat;lon;timestamp;P1;durP1;ratioP1;P2;durP2;ratioP2
20725;SDS011;10524;48.132;8.518;2023-04-24T00:00:07;1.58;;;0.70;;
20725;SDS011;10524;48.132;8.518;2023-04-24T00:02:38;1.40;;;0.88;;
20725;SDS011;10524;48.132;8.518;2023-04-24T00:05:07;0.88;;;0.60;;
20725;SDS011;10524;48.132;8.518;2023-04-24T00:07:33;1.55;;;0.60;;
20725;SDS011;10524;48.132;8.518;2023-04-24T00:09:59;0.80;;;0.65;;
20725;SDS011;10524;48.132;8.518;2023-04-24T00:12:25;0.82;;;0.60;;
20725;SDS011;10524;48.132;8.518;2023-04-24T00:14:52;2.08;;;0.70;;
20725;SDS011;10524;48.132;8.518;2023-04-24T00:17:17;0.73;;;0.60;;
20725;SDS011;10524;48.132;8.518;2023-04-24T00:19:46;0.70;;;0.50;;
20725;SDS011;10524;48.132;8.518;2023-04-24T00:22:13;1.42;;;0.80;;
20725;SDS011;10524;48.132;8.518;2023-04-24T00:24:39;0.80;;;0.60;;
20725;SDS011;10524;48.132;8.518;2023-04-24T00:27:05;1.50;;;0.60;;
20725;SDS011;10524;48.132;8.518;2023-04-24T00:29:31;0.50;;;0.50;;
20725;SDS011;10524;48.132;8.518;2023-04-24T00:31:57;0.73;;;0.52;;
20725;SDS011;10524;48.132;8.518;2023-04-24T00:34:23;1.65;;;0.60;;
20725;SDS011;10524;48.132;8.518;2023-04-24T00:36:48;1.38;;;0.68;;
20725;SDS011;10524;48.132;8.518;2023-04-24T00:39:17;2.38;;;0.60;;
20725;SDS011;10524;48.132;8.518;2023-04-24T00:41:43;0.80;;;0.70;;
20725;SDS011;10524;48.132;8.518;2023-04-24T00:44:10;0.70;;;0.50;;
20725;SDS011;10524;48.132;8.518;2023-04-24T00:46:36;1.33;;;0.60;;
20725;SDS011;10524;48.132;8.518;2023-04-24T00:49:02;1.88;;;0.70;;
20725;SDS011;10524;48.132;8.518;2023-04-24T00:51:27;1.60;;;0.65;;
20725;SDS011;10524;48.132;8.518;2023-04-24T00:53:53;1.25;;;0.52;;
20725;SDS011;10524;48.132;8.518;2023-04-24T00:56:19;1.63;;;0.70;;
20725;SDS011;10524;48.132;8.518;2023-04-24T00:58:45;2.35;;;0.70;;
20725;SDS011;10524;48.132;8.518;2023-04-24T01:01:10;0.70;;;0.50;;
20725;SDS011;10524;48.132;8.518;2023-04-24T01:03:36;2.17;;;0.77;;
20725;SDS011;10524;48.132;8.518;2023-04-24T01:06:03;1.20;;;0.80;;
20725;SDS011;10524;48.132;8.518;2023-04-24T01:08:30;1.58;;;0.70;;
20725;SDS011;10524;48.132;8.518;2023-04-24T01:10:56;1.33;;;0.63;;
20725;SDS011;10524;48.132;8.518;2023-04-24T01:13:23;1.83;;;0.90;;
20725;SDS011;10524;48.132;8.518;2023-04-24T01:15:48;1.42;;;0.70;;
20725;SDS011;10524;48.132;8.518;2023-04-24T01:18:15;1.23;;;0.77;;
20725;SDS011;10524;48.132;8.518;2023-04-24T01:20:41;1.05;;;0.73;;
20725;SDS011;10524;48.132;8.518;2023-04-24T01:23:09;1.77;;;0.73;;
20725;SDS011;10524;48.132;8.518;2023-04-24T01:25:35;1.10;;;0.80;;
20725;SDS011;10524;48.132;8.518;2023-04-24T01:28:01;1.48;;;0.65;;
20725;SDS011;10524;48.132;8.518;2023-04-24T01:30:27;1.58;;;0.65;;
20725;SDS011;10524;48.132;8.518;2023-04-24T01:32:53;1.02;;;0.65;;
20725;SDS011;10524;48.132;8.518;2023-04-24T01:35:19;1.35;;;0.70;;
20725;SDS011;10524;48.132;8.518;2023-04-24T01:37:45;2.17;;;0.90;;
20725;SDS011;10524;48.132;8.518;2023-04-24T01:40:11;1.90;;;0.90;;
20725;SDS011;10524;48.132;8.518;2023-04-24T01:42:37;2.50;;;0.90;;
20725;SDS011;10524;48.132;8.518;2023-04-24T01:45:05;3.10;;;1.02;;
20725;SDS011;10524;48.132;8.518;2023-04-24T01:47:33;2.45;;;0.80;;
20725;SDS011;10524;48.132;8.518;2023-04-24T01:49:58;1.83;;;0.80;;
20725;SDS011;10524;48.132;8.518;2023-04-24T01:52:24;1.98;;;0.65;;
20725;SDS011;10524;48.132;8.518;2023-04-24T01:54:50;1.60;;;0.80;;
20725;SDS011;10524;48.132;8.518;2023-04-24T01:57:17;1.00;;;0.82;;
20725;SDS011;10524;48.132;8.518;2023-04-24T01:59:42;1.75;;;0.80;;
20725;SDS011;10524;48.132;8.518;2023-04-24T02:02:09;2.75;;;0.90;;
20725;SDS011;10524;48.132;8.518;2023-04-24T02:04:34;1.98;;;0.82;;
20725;SDS011;10524;48.132;8.518;2023-04-24T02:07:00;2.33;;;0.93;;
20725;SDS011;10524;48.132;8.518;2023-04-24T02:09:26;1.83;;;0.80;;
20725;SDS011;10524;48.132;8.518;2023-04-24T02:11:51;1.60;;;1.00;;
20725;SDS011;10524;48.132;8.518;2023-04-24T02:14:17;2.03;;;0.77;;
20725;SDS011;10524;48.132;8.518;2023-04-24T02:16:43;2.75;;;1.00;;
20725;SDS011;10524;48.132;8.518;2023-04-24T02:19:09;2.22;;;0.90;;
20725;SDS011;10524;48.132;8.518;2023-04-24T02:21:35;1.17;;;0.90;;
20725;SDS011;10524;48.132;8.518;2023-04-24T02:24:01;2.35;;;1.00;;
20725;SDS011;10524;48.132;8.518;2023-04-24T02:26:27;3.28;;;0.95;;
20725;SDS011;10524;48.132;8.518;2023-04-24T02:28:52;2.00;;;1.05;;
20725;SDS011;10524;48.132;8.518;2023-04-24T02:31:18;1.80;;;1.20;;
20725;SDS011;10524;48.132;8.518;2023-04-24T02:33:44;3.13;;;1.27;;
20725;SDS011;10524;48.132;8.518;2023-04-24T02:36:09;3.25;;;1.20;;
20725;SDS011;10524;48.132;8.518;2023-04-24T02:38:35;1.75;;;1.30;;
20725;SDS011;10524;48.132;8.518;2023-04-24T02:41:01;2.13;;;1.10;;
20725;SDS011;10524;48.132;8.518;2023-04-24T02:43:28;2.38;;;1.35;;
20725;SDS011;10524;48.132;8.518;2023-04-24T02:45:53;3.42;;;1.35;;
20725;SDS011;10524;48.132;8.518;2023-04-24T02:48:19;1.80;;;1.30;;
20725;SDS011;10524;48.132;8.518;2023-04-24T02:50:46;2.45;;;1.50;;
20725;SDS011;10524;48.132;8.518;2023-04-24T02:53:11;2.33;;;1.45;;
20725;SDS011;10524;48.132;8.518;2023-04-24T02:55:37;2.42;;;1.42;;
20725;SDS011;10524;48.132;8.518;2023-04-24T02:58:03;2.40;;;1.40;;
20725;SDS011;10524;48.132;8.518;2023-04-24T03:00:28;2.22;;;1.52;;
20725;SDS011;10524;48.132;8.518;2023-04-24T03:02:54;2.95;;;1.30;;
20725;SDS011;10524;48.132;8.518;2023-04-24T03:05:20;2.92;;;1.67;;
20725;SDS011;10524;48.132;8.518;2023-04-24T03:07:46;2.30;;;1.50;;
20725;SDS011;10524;48.132;8.518;2023-04-24T03:10:11;2.25;;;1.40;;
20725;SDS011;10524;48.132;8.518;2023-04-24T03:12:37;4.43;;;1.50;;
20725;SDS011;10524;48.132;8.518;2023-04-24T03:15:03;2.28;;;1.10;;
20725;SDS011;10524;48.132;8.518;2023-04-24T03:17:29;3.60;;;1.50;;
20725;SDS011;10524;48.132;8.518;2023-04-24T03:19:54;3.65;;;1.40;;
20725;SDS011;10524;48.132;8.518;2023-04-24T03:22:20;3.47;;;1.30;;
20725;SDS011;10524;48.132;8.518;2023-04-24T03:24:46;1.70;;;1.17;;
20725;SDS011;10524;48.132;8.518;2023-04-24T03:27:11;2.65;;;1.38;;
20725;SDS011;10524;48.132;8.518;2023-04-24T03:29:37;2.00;;;1.10;;
20725;SDS011;10524;48.132;8.518;2023-04-24T03:32:02;3.10;;;1.38;;
20725;SDS011;10524;48.132;8.518;2023-04-24T03:34:28;2.80;;;1.10;;
20725;SDS011;10524;48.132;8.518;2023-04-24T03:36:54;3.30;;;1.33;;
20725;SDS011;10524;48.132;8.518;2023-04-24T03:39:19;3.35;;;1.38;;
20725;SDS011;10524;48.132;8.518;2023-04-24T03:41:45;2.65;;;1.25;;
20725;SDS011;10524;48.132;8.518;2023-04-24T03:44:10;2.63;;;1.20;;
20725;SDS011;10524;48.132;8.518;2023-04-24T03:46:36;2.00;;;1.00;;
20725;SDS011;10524;48.132;8.518;2023-04-24T03:49:02;2.67;;;1.40;;
20725;SDS011;10524;48.132;8.518;2023-04-24T03:51:27;1.90;;;1.15;;
20725;SDS011;10524;48.132;8.518;2023-04-24T03:53:55;2.60;;;1.10;;
20725;SDS011;10524;48.132;8.518;2023-04-24T03:56:20;1.73;;;1.13;;
20725;SDS011;10524;48.132;8.518;2023-04-24T03:58:46;3.08;;;1.10;;
20725;SDS011;10524;48.132;8.518;2023-04-24T04:01:12;1.95;;;1.17;;
20725;SDS011;10524;48.132;8.518;2023-04-24T04:03:38;2.75;;;1.30;;
20725;SDS011;10524;48.132;8.518;2023-04-24T04:06:03;2.53;;;1.20;;
20725;SDS011;10524;48.132;8.518;2023-04-24T04:08:29;2.47;;;1.10;;
20725;SDS011;10524;48.132;8.518;2023-04-24T04:10:55;1.83;;;1.30;;
20725;SDS011;10524;48.132;8.518;2023-04-24T04:13:20;4.95;;;1.40;;
20725;SDS011;10524;48.132;8.518;2023-04-24T04:15:46;3.53;;;1.30;;
20725;SDS011;10524;48.132;8.518;2023-04-24T04:18:12;1.75;;;1.33;;
20725;SDS011;10524;48.132;8.518;2023-04-24T04:20:37;4.43;;;1.55;;
20725;SDS011;10524;48.132;8.518;2023-04-24T04:23:03;1.88;;;1.35;;
20725;SDS011;10524;48.132;8.518;2023-04-24T04:25:28;3.42;;;1.40;;
20725;SDS011;10524;48.132;8.518;2023-04-24T04:27:54;4.40;;;1.30;;
20725;SDS011;10524;48.132;8.518;2023-04-24T04:30:20;2.50;;;1.20;;
20725;SDS011;10524;48.132;8.518;2023-04-24T04:32:46;1.45;;;1.35;;
20725;SDS011;10524;48.132;8.518;2023-04-24T04:35:12;2.63;;;2.15;;
20725;SDS011;10524;48.132;8.518;2023-04-24T04:37:37;4.80;;;2.00;;
20725;SDS011;10524;48.132;8.518;2023-04-24T04:40:03;3.13;;;2.42;;
20725;SDS011;10524;48.132;8.518;2023-04-24T04:42:34;3.25;;;2.50;;
20725;SDS011;10524;48.132;8.518;2023-04-24T04:45:00;3.75;;;2.40;;
20725;SDS011;10524;48.132;8.518;2023-04-24T04:47:25;3.10;;;2.60;;
20725;SDS011;10524;48.132;8.518;2023-04-24T04:49:53;3.33;;;2.72;;
20725;SDS011;10524;48.132;8.518;2023-04-24T04:52:19;3.80;;;2.70;;
20725;SDS011;10524;48.132;8.518;2023-04-24T04:54:45;3.67;;;2.83;;
20725;SDS011;10524;48.132;8.518;2023-04-24T04:57:11;3.13;;;2.50;;
20725;SDS011;10524;48.132;8.518;2023-04-24T04:59:37;5.65;;;2.97;;
20725;SDS011;10524;48.132;8.518;2023-04-24T05:02:02;4.05;;;2.50;;
20725;SDS011;10524;48.132;8.518;2023-04-24T05:04:28;5.15;;;2.90;;
20725;SDS011;10524;48.132;8.518;2023-04-24T05:06:54;3.70;;;2.58;;
20725;SDS011;10524;48.132;8.518;2023-04-24T05:09:19;4.00;;;2.60;;
20725;SDS011;10524;48.132;8.518;2023-04-24T05:11:45;4.03;;;3.00;;
20725;SDS011;10524;48.132;8.518;2023-04-24T05:14:11;3.42;;;3.13;;
20725;SDS011;10524;48.132;8.518;2023-04-24T05:16:37;3.30;;;2.92;;
20725;SDS011;10524;48.132;8.518;2023-04-24T05:19:03;3.55;;;3.00;;
20725;SDS011;10524;48.132;8.518;2023-04-24T05:21:29;3.75;;;3.17;;
20725;SDS011;10524;48.132;8.518;2023-04-24T05:23:56;6.80;;;5.30;;
20725;SDS011;10524;48.132;8.518;2023-04-24T05:26:21;11.45;;;8.55;;
20725;SDS011;10524;48.132;8.518;2023-04-24T05:28:47;10.68;;;6.68;;
20725;SDS011;10524;48.132;8.518;2023-04-24T05:31:13;36.78;;;22.77;;
20725;SDS011;10524;48.132;8.518;2023-04-24T05:33:39;14.88;;;10.52;;
20725;SDS011;10524;48.132;8.518;2023-04-24T05:36:05;4.22;;;3.70;;
20725;SDS011;10524;48.132;8.518;2023-04-24T05:38:31;6.65;;;4.45;;
20725;SDS011;10524;48.132;8.518;2023-04-24T05:40:57;9.20;;;8.30;;
20725;SDS011;10524;48.132;8.518;2023-04-24T05:43:23;7.57;;;6.88;;
20725;SDS011;10524;48.132;8.518;2023-04-24T05:45:48;3.80;;;3.40;;
20725;SDS011;10524;48.132;8.518;2023-04-24T05:48:14;4.32;;;2.42;;
20725;SDS011;10524;48.132;8.518;2023-04-24T05:50:40;1.95;;;1.70;;
20725;SDS011;10524;48.132;8.518;2023-04-24T05:53:06;1.88;;;1.45;;
20725;SDS011;10524;48.132;8.518;2023-04-24T05:55:32;1.85;;;1.58;;
20725;SDS011;10524;48.132;8.518;2023-04-24T05:57:57;2.25;;;1.50;;
20725;SDS011;10524;48.132;8.518;2023-04-24T06:00:24;1.58;;;1.48;;
20725;SDS011;10524;48.132;8.518;2023-04-24T06:02:50;1.95;;;1.30;;
20725;SDS011;10524;48.132;8.518;2023-04-24T06:05:16;3.08;;;1.30;;
20725;SDS011;10524;48.132;8.518;2023-04-24T06:07:42;1.73;;;1.30;;
20725;SDS011;10524;48.132;8.518;2023-04-24T06:10:08;2.05;;;1.48;;
20725;SDS011;10524;48.132;8.518;2023-04-24T06:12:34;1.88;;;1.40;;
20725;SDS011;10524;48.132;8.518;2023-04-24T06:15:00;1.48;;;1.30;;
20725;SDS011;10524;48.132;8.518;2023-04-24T06:17:26;2.45;;;1.50;;
20725;SDS011;10524;48.132;8.518;2023-04-24T06:19:51;4.25;;;1.65;;
20725;SDS011;10524;48.132;8.518;2023-04-24T06:22:17;3.80;;;2.28;;
20725;SDS011;10524;48.132;8.518;2023-04-24T06:24:42;3.25;;;1.90;;
20725;SDS011;10524;48.132;8.518;2023-04-24T06:27:08;2.05;;;1.88;;
20725;SDS011;10524;48.132;8.518;2023-04-24T06:29:35;3.45;;;1.80;;
20725;SDS011;10524;48.132;8.518;2023-04-24T06:32:01;3.00;;;1.90;;
20725;SDS011;10524;48.132;8.518;2023-04-24T06:34:26;2.10;;;1.90;;
20725;SDS011;10524;48.132;8.518;2023-04-24T06:36:52;2.47;;;2.10;;
20725;SDS011;10524;48.132;8.518;2023-04-24T06:39:17;4.50;;;1.90;;
20725;SDS011;10524;48.132;8.518;2023-04-24T06:41:43;2.55;;;1.88;;
20725;SDS011;10524;48.132;8.518;2023-04-24T06:44:09;2.45;;;1.45;;
20725;SDS011;10524;48.132;8.518;2023-04-24T06:46:34;1.38;;;1.20;;
20725;SDS011;10524;48.132;8.518;2023-04-24T06:49:00;2.67;;;1.30;;
20725;SDS011;10524;48.132;8.518;2023-04-24T06:51:26;1.60;;;1.30;;
20725;SDS011;10524;48.132;8.518;2023-04-24T06:53:55;1.20;;;1.10;;
20725;SDS011;10524;48.132;8.518;2023-04-24T06:56:21;2.33;;;1.08;;
20725;SDS011;10524;48.132;8.518;2023-04-24T06:58:47;1.58;;;1.30;;
20725;SDS011;10524;48.132;8.518;2023-04-24T07:01:13;1.60;;;1.00;;
20725;SDS011;10524;48.132;8.518;2023-04-24T07:03:38;1.23;;;1.10;;
20725;SDS011;10524;48.132;8.518;2023-04-24T07:06:04;1.98;;;1.30;;
20725;SDS011;10524;48.132;8.518;2023-04-24T07:08:30;3.65;;;1.50;;
20725;SDS011;10524;48.132;8.518;2023-04-24T07:10:57;4.55;;;1.50;;
20725;SDS011;10524;48.132;8.518;2023-04-24T07:13:23;2.08;;;1.50;;
20725;SDS011;10524;48.132;8.518;2023-04-24T07:15:49;1.67;;;1.38;;
20725;SDS011;10524;48.132;8.518;2023-04-24T07:18:16;3.22;;;1.52;;
20725;SDS011;10524;48.132;8.518;2023-04-24T07:20:41;1.95;;;1.60;;
20725;SDS011;10524;48.132;8.518;2023-04-24T07:23:07;1.67;;;1.58;;
20725;SDS011;10524;48.132;8.518;2023-04-24T07:25:33;1.70;;;1.60;;
20725;SDS011;10524;48.132;8.518;2023-04-24T07:27:59;3.50;;;1.92;;
20725;SDS011;10524;48.132;8.518;2023-04-24T07:30:24;3.42;;;1.63;;
20725;SDS011;10524;48.132;8.518;2023-04-24T07:32:50;2.50;;;1.83;;
20725;SDS011;10524;48.132;8.518;2023-04-24T07:35:16;1.85;;;1.65;;
20725;SDS011;10524;48.132;8.518;2023-04-24T07:37:42;5.32;;;1.75;;
20725;SDS011;10524;48.132;8.518;2023-04-24T07:40:11;2.45;;;1.88;;
20725;SDS011;10524;48.132;8.518;2023-04-24T07:42:37;1.83;;;1.70;;
20725;SDS011;10524;48.132;8.518;2023-04-24T07:45:03;2.60;;;2.00;;
20725;SDS011;10524;48.132;8.518;2023-04-24T07:47:29;2.70;;;1.83;;
20725;SDS011;10524;48.132;8.518;2023-04-24T07:49:55;2.45;;;1.92;;
20725;SDS011;10524;48.132;8.518;2023-04-24T07:52:21;3.25;;;2.25;;
20725;SDS011;10524;48.132;8.518;2023-04-24T07:54:46;3.10;;;2.22;;
20725;SDS011;10524;48.132;8.518;2023-04-24T07:57:12;3.72;;;2.20;;
20725;SDS011;10524;48.132;8.518;2023-04-24T07:59:38;3.33;;;2.42;;
20725;SDS011;10524;48.132;8.518;2023-04-24T08:02:04;3.05;;;1.90;;
20725;SDS011;10524;48.132;8.518;2023-04-24T08:04:31;3.35;;;2.35;;
20725;SDS011;10524;48.132;8.518;2023-04-24T08:06:57;2.97;;;2.20;;
20725;SDS011;10524;48.132;8.518;2023-04-24T08:09:23;2.33;;;2.00;;
20725;SDS011;10524;48.132;8.518;2023-04-24T08:11:48;2.47;;;1.60;;
20725;SDS011;10524;48.132;8.518;2023-04-24T08:14:14;2.60;;;1.70;;
20725;SDS011;10524;48.132;8.518;2023-04-24T08:16:40;2.85;;;1.50;;
20725;SDS011;10524;48.132;8.518;2023-04-24T08:19:06;3.38;;;1.77;;
20725;SDS011;10524;48.132;8.518;2023-04-24T08:21:32;3.58;;;2.00;;
20725;SDS011;10524;48.132;8.518;2023-04-24T08:23:58;2.75;;;1.80;;
20725;SDS011;10524;48.132;8.518;2023-04-24T08:26:23;4.05;;;2.17;;
20725;SDS011;10524;48.132;8.518;2023-04-24T08:28:50;3.40;;;2.00;;
20725;SDS011;10524;48.132;8.518;2023-04-24T08:31:17;4.80;;;2.00;;
20725;SDS011;10524;48.132;8.518;2023-04-24T08:33:43;2.00;;;1.63;;
20725;SDS011;10524;48.132;8.518;2023-04-24T08:36:10;2.80;;;1.85;;
20725;SDS011;10524;48.132;8.518;2023-04-24T08:38:36;2.63;;;1.50;;
20725;SDS011;10524;48.132;8.518;2023-04-24T08:41:01;2.60;;;1.50;;
20725;SDS011;10524;48.132;8.518;2023-04-24T08:43:29;2.67;;;1.83;;
20725;SDS011;10524;48.132;8.518;2023-04-24T08:45:57;3.38;;;1.77;;
20725;SDS011;10524;48.132;8.518;2023-04-24T08:48:24;2.45;;;1.80;;
20725;SDS011;10524;48.132;8.518;2023-04-24T08:50:51;3.25;;;2.25;;
20725;SDS011;10524;48.132;8.518;2023-04-24T08:53:17;3.05;;;2.30;;
20725;SDS011;10524;48.132;8.518;2023-04-24T08:55:43;3.55;;;2.38;;
20725;SDS011;10524;48.132;8.518;2023-04-24T08:58:13;2.95;;;2.70;;
20725;SDS011;10524;48.132;8.518;2023-04-24T09:00:41;5.25;;;2.80;;
20725;SDS011;10524;48.132;8.518;2023-04-24T09:03:11;3.47;;;2.70;;
20725;SDS011;10524;48.132;8.518;2023-04-24T09:05:39;2.90;;;2.35;;
20725;SDS011;10524;48.132;8.518;2023-04-24T09:08:10;3.08;;;2.40;;
20725;SDS011;10524;48.132;8.518;2023-04-24T09:10:38;3.17;;;2.40;;
20725;SDS011;10524;48.132;8.518;2023-04-24T09:13:04;3.38;;;2.55;;
20725;SDS011;10524;48.132;8.518;2023-04-24T09:15:31;4.85;;;2.88;;
20725;SDS011;10524;48.132;8.518;2023-04-24T09:17:57;3.30;;;2.67;;
20725;SDS011;10524;48.132;8.518;2023-04-24T09:20:23;2.90;;;2.40;;
20725;SDS011;10524;48.132;8.518;2023-04-24T09:22:48;3.00;;;2.40;;
20725;SDS011;10524;48.132;8.518;2023-04-24T09:25:20;5.30;;;2.63;;
20725;SDS011;10524;48.132;8.518;2023-04-24T09:27:46;3.95;;;2.30;;
20725;SDS011;10524;48.132;8.518;2023-04-24T09:30:12;3.20;;;2.30;;
20725;SDS011;10524;48.132;8.518;2023-04-24T09:32:38;3.17;;;2.00;;
20725;SDS011;10524;48.132;8.518;2023-04-24T09:35:05;2.42;;;2.08;;
20725;SDS011;10524;48.132;8.518;2023-04-24T09:37:40;2.45;;;1.90;;
20725;SDS011;10524;48.132;8.518;2023-04-24T09:40:14;2.10;;;1.90;;
20725;SDS011;10524;48.132;8.518;2023-04-24T09:42:50;3.70;;;2.00;;
20725;SDS011;10524;48.132;8.518;2023-04-24T09:45:17;2.33;;;1.80;;
20725;SDS011;10524;48.132;8.518;2023-04-24T09:47:43;2.95;;;1.83;;
20725;SDS011;10524;48.132;8.518;2023-04-24T09:50:16;2.65;;;1.70;;
20725;SDS011;10524;48.132;8.518;2023-04-24T09:55:16;2.42;;;1.75;;
20725;SDS011;10524;48.132;8.518;2023-04-24T09:57:47;3.08;;;1.77;;
20725;SDS011;10524;48.132;8.518;2023-04-24T10:00:30;1.92;;;1.55;;
20725;SDS011;10524;48.132;8.518;2023-04-24T10:03:01;2.75;;;1.77;;
20725;SDS011;10524;48.132;8.518;2023-04-24T10:05:34;3.45;;;1.80;;
20725;SDS011;10524;48.132;8.518;2023-04-24T10:10:32;3.10;;;2.10;;
20725;SDS011;10524;48.132;8.518;2023-04-24T10:12:59;3.10;;;1.98;;
20725;SDS011;10524;48.132;8.518;2023-04-24T10:15:26;3.20;;;2.00;;
20725;SDS011;10524;48.132;8.518;2023-04-24T10:17:52;2.70;;;1.90;;
20725;SDS011;10524;48.132;8.518;2023-04-24T10:20:22;2.83;;;2.15;;
20725;SDS011;10524;48.132;8.518;2023-04-24T10:22:49;4.07;;;1.70;;
20725;SDS011;10524;48.132;8.518;2023-04-24T10:25:16;3.38;;;1.60;;
20725;SDS011;10524;48.132;8.518;2023-04-24T10:27:47;1.88;;;1.40;;
20725;SDS011;10524;48.132;8.518;2023-04-24T10:30:13;1.90;;;1.40;;
20725;SDS011;10524;48.132;8.518;2023-04-24T10:32:40;2.05;;;1.52;;
20725;SDS011;10524;48.132;8.518;2023-04-24T10:35:06;3.78;;;1.60;;
20725;SDS011;10524;48.132;8.518;2023-04-24T10:40:18;2.60;;;1.40;;
20725;SDS011;10524;48.132;8.518;2023-04-24T10:42:51;3.42;;;1.60;;
20725;SDS011;10524;48.132;8.518;2023-04-24T10:45:19;2.97;;;1.63;;
20725;SDS011;10524;48.132;8.518;2023-04-24T10:50:44;5.70;;;2.03;;
20725;SDS011;10524;48.132;8.518;2023-04-24T10:53:16;7.85;;;1.88;;
20725;SDS011;10524;48.132;8.518;2023-04-24T10:55:47;3.03;;;1.80;;
20725;SDS011;10524;48.132;8.518;2023-04-24T10:58:15;4.53;;;1.60;;
20725;SDS011;10524;48.132;8.518;2023-04-24T11:00:42;3.85;;;1.85;;
20725;SDS011;10524;48.132;8.518;2023-04-24T11:03:22;3.25;;;1.60;;
20725;SDS011;10524;48.132;8.518;2023-04-24T11:05:56;1.73;;;1.40;;
20725;SDS011;10524;48.132;8.518;2023-04-24T11:10:56;2.83;;;1.23;;
20725;SDS011;10524;48.132;8.518;2023-04-24T11:14:00;1.75;;;1.35;;
20725;SDS011;10524;48.132;8.518;2023-04-24T11:21:42;2.97;;;1.20;;
20725;SDS011;10524;48.132;8.518;2023-04-24T11:26:56;1.38;;;1.10;;
20725;SDS011;10524;48.132;8.518;2023-04-24T11:29:22;2.35;;;1.30;;
20725;SDS011;10524;48.132;8.518;2023-04-24T11:32:13;1.52;;;0.82;;
20725;SDS011;10524;48.132;8.518;2023-04-24T11:34:47;1.20;;;0.90;;
20725;SDS011;10524;48.132;8.518;2023-04-24T11:37:18;1.08;;;0.95;;
20725;SDS011;10524;48.132;8.518;2023-04-24T11:39:43;1.70;;;1.48;;
20725;SDS011;10524;48.132;8.518;2023-04-24T11:42:09;0.90;;;0.60;;
20725;SDS011;10524;48.132;8.518;2023-04-24T11:44:36;1.33;;;1.20;;
20725;SDS011;10524;48.132;8.518;2023-04-24T11:47:04;1.10;;;0.80;;
20725;SDS011;10524;48.132;8.518;2023-04-24T11:49:30;0.80;;;0.70;;
20725;SDS011;10524;48.132;8.518;2023-04-24T11:51:56;1.65;;;1.00;;
20725;SDS011;10524;48.132;8.518;2023-04-24T11:54:21;2.75;;;1.00;;
20725;SDS011;10524;48.132;8.518;2023-04-24T11:56:47;1.27;;;1.00;;
20725;SDS011;10524;48.132;8.518;2023-04-24T11:59:14;1.40;;;0.80;;
20725;SDS011;10524;48.132;8.518;2023-04-24T12:01:43;1.35;;;0.80;;
20725;SDS011;10524;48.132;8.518;2023-04-24T12:04:13;2.35;;;0.80;;
20725;SDS011;10524;48.132;8.518;2023-04-24T12:07:00;2.55;;;0.93;;
20725;SDS011;10524;48.132;8.518;2023-04-24T12:09:26;1.70;;;0.80;;
20725;SDS011;10524;48.132;8.518;2023-04-24T12:11:52;2.03;;;1.00;;
20725;SDS011;10524;48.132;8.518;2023-04-24T12:14:21;1.80;;;1.00;;
20725;SDS011;10524;48.132;8.518;2023-04-24T12:16:48;2.55;;;0.80;;
20725;SDS011;10524;48.132;8.518;2023-04-24T12:19:21;1.77;;;0.95;;
20725;SDS011;10524;48.132;8.518;2023-04-24T12:22:03;2.08;;;0.90;;
20725;SDS011;10524;48.132;8.518;2023-04-24T12:24:30;1.33;;;1.23;;
20725;SDS011;10524;48.132;8.518;2023-04-24T12:26:57;1.65;;;1.00;;
20725;SDS011;10524;48.132;8.518;2023-04-24T12:29:23;1.67;;;1.00;;
20725;SDS011;10524;48.132;8.518;2023-04-24T12:31:50;1.67;;;1.10;;
20725;SDS011;10524;48.132;8.518;2023-04-24T12:34:17;2.20;;;1.00;;
20725;SDS011;10524;48.132;8.518;2023-04-24T12:36:47;3.25;;;1.60;;
20725;SDS011;10524;48.132;8.518;2023-04-24T12:39:19;1.23;;;1.00;;
20725;SDS011;10524;48.132;8.518;2023-04-24T12:41:55;1.70;;;1.00;;
20725;SDS011;10524;48.132;8.518;2023-04-24T12:44:31;1.55;;;0.88;;
20725;SDS011;10524;48.132;8.518;2023-04-24T12:46:59;2.28;;;1.23;;
20725;SDS011;10524;48.132;8.518;2023-04-24T12:49:26;1.55;;;1.00;;
20725;SDS011;10524;48.132;8.518;2023-04-24T12:51:53;1.25;;;0.90;;
20725;SDS011;10524;48.132;8.518;2023-04-24T12:54:19;0.80;;;0.80;;
20725;SDS011;10524;48.132;8.518;2023-04-24T12:56:45;1.25;;;0.90;;
20725;SDS011;10524;48.132;8.518;2023-04-24T12:59:10;1.80;;;0.82;;
20725;SDS011;10524;48.132;8.518;2023-04-24T13:01:36;2.28;;;1.00;;
20725;SDS011;10524;48.132;8.518;2023-04-24T13:04:02;1.63;;;1.13;;
20725;SDS011;10524;48.132;8.518;2023-04-24T13:06:27;1.48;;;1.10;;
20725;SDS011;10524;48.132;8.518;2023-04-24T13:08:53;1.30;;;1.00;;
20725;SDS011;10524;48.132;8.518;2023-04-24T13:11:20;4.70;;;1.10;;
20725;SDS011;10524;48.132;8.518;2023-04-24T13:13:46;2.58;;;1.00;;
20725;SDS011;10524;48.132;8.518;2023-04-24T13:16:12;3.67;;;1.00;;
20725;SDS011;10524;48.132;8.518;2023-04-24T13:18:38;1.88;;;1.10;;
20725;SDS011;10524;48.132;8.518;2023-04-24T13:21:04;2.75;;;1.67;;
20725;SDS011;10524;48.132;8.518;2023-04-24T13:23:29;2.33;;;1.08;;
20725;SDS011;10524;48.132;8.518;2023-04-24T13:25:55;3.58;;;1.50;;
20725;SDS011;10524;48.132;8.518;2023-04-24T13:28:23;1.73;;;1.23;;
20725;SDS011;10524;48.132;8.518;2023-04-24T13:30:50;3.17;;;1.58;;
20725;SDS011;10524;48.132;8.518;2023-04-24T13:33:16;1.25;;;1.10;;
20725;SDS011;10524;48.132;8.518;2023-04-24T13:35:42;3.08;;;1.75;;
20725;SDS011;10524;48.132;8.518;2023-04-24T13:38:07;2.20;;;1.50;;
20725;SDS011;10524;48.132;8.518;2023-04-24T13:40:33;2.10;;;1.20;;
20725;SDS011;10524;48.132;8.518;2023-04-24T13:42:59;2.88;;;1.58;;
20725;SDS011;10524;48.132;8.518;2023-04-24T13:45:25;4.25;;;2.10;;
20725;SDS011;10524;48.132;8.518;2023-04-24T13:47:51;2.17;;;1.23;;
20725;SDS011;10524;48.132;8.518;2023-04-24T13:50:18;2.00;;;1.30;;
20725;SDS011;10524;48.132;8.518;2023-04-24T13:52:45;3.78;;;1.73;;
20725;SDS011;10524;48.132;8.518;2023-04-24T13:55:10;1.50;;;1.10;;
20725;SDS011;10524;48.132;8.518;2023-04-24T13:57:36;1.55;;;1.35;;
20725;SDS011;10524;48.132;8.518;2023-04-24T14:00:02;3.58;;;1.30;;
20725;SDS011;10524;48.132;8.518;2023-04-24T14:02:29;2.05;;;1.00;;
20725;SDS011;10524;48.132;8.518;2023-04-24T14:04:55;2.20;;;1.20;;
20725;SDS011;10524;48.132;8.518;2023-04-24T14:07:20;2.63;;;1.65;;
20725;SDS011;10524;48.132;8.518;2023-04-24T14:09:46;1.88;;;1.10;;
20725;SDS011;10524;48.132;8.518;2023-04-24T14:12:15;1.85;;;1.30;;
20725;SDS011;10524;48.132;8.518;2023-04-24T14:14:46;2.20;;;1.30;;
20725;SDS011;10524;48.132;8.518;2023-04-24T14:17:13;2.83;;;1.80;;
20725;SDS011;10524;48.132;8.518;2023-04-24T14:19:39;2.08;;;1.38;;
20725;SDS011;10524;48.132;8.518;2023-04-24T14:22:05;2.30;;;1.40;;
20725;SDS011;10524;48.132;8.518;2023-04-24T14:24:31;2.85;;;1.45;;
20725;SDS011;10524;48.132;8.518;2023-04-24T14:26:57;2.55;;;1.30;;
20725;SDS011;10524;48.132;8.518;2023-04-24T14:29:23;3.78;;;1.40;;
20725;SDS011;10524;48.132;8.518;2023-04-24T14:31:50;2.35;;;1.40;;
20725;SDS011;10524;48.132;8.518;2023-04-24T14:34:16;2.03;;;1.30;;
20725;SDS011;10524;48.132;8.518;2023-04-24T14:36:44;3.22;;;1.50;;
20725;SDS011;10524;48.132;8.518;2023-04-24T14:39:10;1.67;;;1.40;;
20725;SDS011;10524;48.132;8.518;2023-04-24T14:41:35;2.17;;;1.15;;
20725;SDS011;10524;48.132;8.518;2023-04-24T14:44:02;1.67;;;1.30;;
20725;SDS011;10524;48.132;8.518;2023-04-24T14:46:29;1.58;;;1.17;;
20725;SDS011;10524;48.132;8.518;2023-04-24T14:48:58;1.83;;;1.30;;
20725;SDS011;10524;48.132;8.518;2023-04-24T14:51:24;3.20;;;1.40;;
20725;SDS011;10524;48.132;8.518;2023-04-24T14:53:50;1.65;;;1.40;;
20725;SDS011;10524;48.132;8.518;2023-04-24T14:56:16;2.83;;;1.55;;
20725;SDS011;10524;48.132;8.518;2023-04-24T14:58:42;3.22;;;1.50;;
20725;SDS011;10524;48.132;8.518;2023-04-24T15:01:08;1.42;;;1.33;;
20725;SDS011;10524;48.132;8.518;2023-04-24T15:03:33;2.78;;;1.42;;
20725;SDS011;10524;48.132;8.518;2023-04-24T15:05:59;2.92;;;1.70;;